sensor_id;sensor_type;location;lat;lon;timestamp;temperature;humidity
1219;DHT22;599;51.494;6.670;2022-08-05T00:01:20;19.70;1.00
1219;DHT22;599;51.494;6.670;2022-08-05T00:03:48;19.60;1.00
1219;DHT22;599;51.494;6.670;2022-08-05T00:06:15;19.70;1.00
1219;DHT22;599;51.494;6.670;2022-08-05T00:08:41;19.60;1.00
1219;DHT22;599;51.494;6.670;2022-08-05T00:11:10;19.60;1.00
1219;DHT22;599;51.494;6.670;2022-08-05T00:13:43;19.60;1.00
1219;DHT22;599;51.494;6.670;2022-08-05T00:16:14;19.60;1.00
1219;DHT22;599;51.494;6.670;2022-08-05T00:18:45;19.50;1.00
1219;DHT22;599;51.494;6.670;2022-08-05T00:21:12;19.50;1.00
1219;DHT22;599;51.494;6.670;2022-08-05T00:23:39;19.50;1.00
1219;DHT22;599;51.494;6.670;2022-08-05T00:26:07;19.40;1.00
1219;DHT22;599;51.494;6.670;2022-08-05T00:28:33;19.40;1.00
1219;DHT22;599;51.494;6.670;2022-08-05T00:31:01;19.30;1.00
1219;DHT22;599;51.494;6.670;2022-08-05T00:33:28;19.30;1.00
1219;DHT22;599;51.494;6.670;2022-08-05T00:35:54;19.40;1.00
1219;DHT22;599;51.494;6.670;2022-08-05T00:38:19;19.30;1.00
1219;DHT22;599;51.494;6.670;2022-08-05T00:43:13;19.30;1.00
1219;DHT22;599;51.494;6.670;2022-08-05T00:45:39;19.20;1.00
1219;DHT22;599;51.494;6.670;2022-08-05T00:48:07;19.20;1.00
1219;DHT22;599;51.494;6.670;2022-08-05T00:50:33;19.20;1.00
1219;DHT22;599;51.494;6.670;2022-08-05T00:52:59;19.10;1.00
1219;DHT22;599;51.494;6.670;2022-08-05T00:55:25;19.10;1.00
1219;DHT22;599;51.494;6.670;2022-08-05T00:57:51;19.20;1.00
1219;DHT22;599;51.494;6.670;2022-08-05T01:00:17;19.10;1.00
1219;DHT22;599;51.494;6.670;2022-08-05T01:02:43;19.10;1.00
1219;DHT22;599;51.494;6.670;2022-08-05T01:05:09;19.00;1.00
1219;DHT22;599;51.494;6.670;2022-08-05T01:07:35;19.10;1.00
1219;DHT22;599;51.494;6.670;2022-08-05T01:10:01;19.00;1.00
1219;DHT22;599;51.494;6.670;2022-08-05T01:12:28;19.00;1.00
1219;DHT22;599;51.494;6.670;2022-08-05T01:15:03;19.00;1.00
1219;DHT22;599;51.494;6.670;2022-08-05T01:17:44;18.90;1.00
1219;DHT22;599;51.494;6.670;2022-08-05T01:23:12;18.90;1.00
1219;DHT22;599;51.494;6.670;2022-08-05T01:28:58;18.90;1.00
1219;DHT22;599;51.494;6.670;2022-08-05T01:31:27;18.80;1.00
1219;DHT22;599;51.494;6.670;2022-08-05T01:34:15;18.80;1.00
1219;DHT22;599;51.494;6.670;2022-08-05T01:36:49;18.80;1.00
1219;DHT22;599;51.494;6.670;2022-08-05T01:39:20;18.90;1.00
1219;DHT22;599;51.494;6.670;2022-08-05T01:41:48;18.90;1.00
1219;DHT22;599;51.494;6.670;2022-08-05T01:44:15;18.90;1.00
1219;DHT22;599;51.494;6.670;2022-08-05T01:46:43;18.90;1.00
1219;DHT22;599;51.494;6.670;2022-08-05T01:49:13;18.90;1.00
1219;DHT22;599;51.494;6.670;2022-08-05T01:51:41;18.90;1.00
1219;DHT22;599;51.494;6.670;2022-08-05T01:54:08;18.90;1.00
1219;DHT22;599;51.494;6.670;2022-08-05T01:56:38;18.90;1.00
1219;DHT22;599;51.494;6.670;2022-08-05T01:59:10;18.90;1.00
1219;DHT22;599;51.494;6.670;2022-08-05T02:01:38;18.90;1.00
1219;DHT22;599;51.494;6.670;2022-08-05T02:04:05;18.90;1.00
1219;DHT22;599;51.494;6.670;2022-08-05T02:06:33;19.00;1.00
1219;DHT22;599;51.494;6.670;2022-08-05T02:08:59;19.00;1.00
1219;DHT22;599;51.494;6.670;2022-08-05T02:11:28;19.00;1.00
1219;DHT22;599;51.494;6.670;2022-08-05T02:14:11;19.10;1.00
1219;DHT22;599;51.494;6.670;2022-08-05T02:16:50;19.20;1.00
1219;DHT22;599;51.494;6.670;2022-08-05T02:22:16;19.20;1.00
1219;DHT22;599;51.494;6.670;2022-08-05T02:24:57;19.20;1.00
1219;DHT22;599;51.494;6.670;2022-08-05T02:27:27;19.30;1.00
1219;DHT22;599;51.494;6.670;2022-08-05T02:29:55;19.30;1.00
1219;DHT22;599;51.494;6.670;2022-08-05T02:32:22;19.20;1.00
1219;DHT22;599;51.494;6.670;2022-08-05T02:34:51;19.30;1.00
1219;DHT22;599;51.494;6.670;2022-08-05T02:37:18;19.30;1.00
1219;DHT22;599;51.494;6.670;2022-08-05T02:39:45;19.30;1.00
1219;DHT22;599;51.494;6.670;2022-08-05T02:42:12;19.30;1.00
1219;DHT22;599;51.494;6.670;2022-08-05T02:44:39;19.30;1.00
1219;DHT22;599;51.494;6.670;2022-08-05T02:47:08;19.30;1.00
1219;DHT22;599;51.494;6.670;2022-08-05T02:49:36;19.20;1.00
1219;DHT22;599;51.494;6.670;2022-08-05T02:52:08;19.30;1.00
1219;DHT22;599;51.494;6.670;2022-08-05T02:54:37;19.30;1.00
1219;DHT22;599;51.494;6.670;2022-08-05T02:57:06;19.20;1.00
1219;DHT22;599;51.494;6.670;2022-08-05T02:59:33;19.20;1.00
1219;DHT22;599;51.494;6.670;2022-08-05T03:02:00;19.20;1.00
1219;DHT22;599;51.494;6.670;2022-08-05T03:04:27;19.10;1.00
1219;DHT22;599;51.494;6.670;2022-08-05T03:06:54;19.10;1.00
1219;DHT22;599;51.494;6.670;2022-08-05T03:09:20;19.00;1.00
1219;DHT22;599;51.494;6.670;2022-08-05T03:11:46;18.90;1.00
1219;DHT22;599;51.494;6.670;2022-08-05T03:14:12;18.90;1.00
1219;DHT22;599;51.494;6.670;2022-08-05T03:16:38;18.90;1.00
1219;DHT22;599;51.494;6.670;2022-08-05T03:19:04;18.90;1.00
1219;DHT22;599;51.494;6.670;2022-08-05T03:21:30;19.00;1.00
1219;DHT22;599;51.494;6.670;2022-08-05T03:23:56;18.90;1.00
1219;DHT22;599;51.494;6.670;2022-08-05T03:26:23;19.00;1.00
1219;DHT22;599;51.494;6.670;2022-08-05T03:28:49;18.90;1.00
1219;DHT22;599;51.494;6.670;2022-08-05T03:31:15;18.90;1.00
1219;DHT22;599;51.494;6.670;2022-08-05T03:33:41;19.00;1.00
1219;DHT22;599;51.494;6.670;2022-08-05T03:36:08;18.90;1.00
1219;DHT22;599;51.494;6.670;2022-08-05T03:38:39;18.90;1.00
1219;DHT22;599;51.494;6.670;2022-08-05T03:41:06;18.90;1.00
1219;DHT22;599;51.494;6.670;2022-08-05T03:43:32;18.90;1.00
1219;DHT22;599;51.494;6.670;2022-08-05T03:45:58;18.90;1.00
1219;DHT22;599;51.494;6.670;2022-08-05T03:48:28;18.90;1.00
1219;DHT22;599;51.494;6.670;2022-08-05T03:51:16;18.90;1.00
1219;DHT22;599;51.494;6.670;2022-08-05T03:53:58;18.80;1.00
1219;DHT22;599;51.494;6.670;2022-08-05T03:56:43;18.80;1.00
1219;DHT22;599;51.494;6.670;2022-08-05T03:59:24;18.80;1.00
1219;DHT22;599;51.494;6.670;2022-08-05T04:02:00;18.80;1.00
1219;DHT22;599;51.494;6.670;2022-08-05T04:04:28;18.80;1.00
1219;DHT22;599;51.494;6.670;2022-08-05T04:06:55;18.80;1.00
1219;DHT22;599;51.494;6.670;2022-08-05T04:09:22;18.80;1.00
1219;DHT22;599;51.494;6.670;2022-08-05T04:11:48;18.80;1.00
1219;DHT22;599;51.494;6.670;2022-08-05T04:14:15;18.80;1.00
1219;DHT22;599;51.494;6.670;2022-08-05T04:16:42;18.80;1.00
1219;DHT22;599;51.494;6.670;2022-08-05T04:19:12;18.80;1.00
1219;DHT22;599;51.494;6.670;2022-08-05T04:21:39;18.70;1.00
1219;DHT22;599;51.494;6.670;2022-08-05T04:24:05;18.70;1.00
1219;DHT22;599;51.494;6.670;2022-08-05T04:26:32;18.60;1.00
1219;DHT22;599;51.494;6.670;2022-08-05T04:28:58;18.60;1.00
1219;DHT22;599;51.494;6.670;2022-08-05T04:31:24;18.70;1.00
1219;DHT22;599;51.494;6.670;2022-08-05T04:33:50;18.60;1.00
1219;DHT22;599;51.494;6.670;2022-08-05T04:36:16;18.60;1.00
1219;DHT22;599;51.494;6.670;2022-08-05T04:38:42;18.70;1.00
1219;DHT22;599;51.494;6.670;2022-08-05T04:41:09;18.60;1.00
1219;DHT22;599;51.494;6.670;2022-08-05T04:43:36;18.60;1.00
1219;DHT22;599;51.494;6.670;2022-08-05T04:46:03;18.60;1.00
1219;DHT22;599;51.494;6.670;2022-08-05T04:48:29;18.60;1.00
1219;DHT22;599;51.494;6.670;2022-08-05T04:50:56;18.60;1.00
1219;DHT22;599;51.494;6.670;2022-08-05T04:53:22;18.50;1.00
1219;DHT22;599;51.494;6.670;2022-08-05T04:55:48;18.60;1.00
1219;DHT22;599;51.494;6.670;2022-08-05T04:58:15;18.60;1.00
1219;DHT22;599;51.494;6.670;2022-08-05T05:00:42;18.50;1.00
1219;DHT22;599;51.494;6.670;2022-08-05T05:03:10;18.60;1.00
1219;DHT22;599;51.494;6.670;2022-08-05T05:05:36;18.60;1.00
1219;DHT22;599;51.494;6.670;2022-08-05T05:08:08;18.60;1.00
1219;DHT22;599;51.494;6.670;2022-08-05T05:10:40;18.70;1.00
1219;DHT22;599;51.494;6.670;2022-08-05T05:13:13;18.70;1.00
1219;DHT22;599;51.494;6.670;2022-08-05T05:15:41;18.60;1.00
1219;DHT22;599;51.494;6.670;2022-08-05T05:18:08;18.70;1.00
1219;DHT22;599;51.494;6.670;2022-08-05T05:20:34;18.70;1.00
1219;DHT22;599;51.494;6.670;2022-08-05T05:23:02;18.60;1.00
1219;DHT22;599;51.494;6.670;2022-08-05T05:25:31;18.60;1.00
1219;DHT22;599;51.494;6.670;2022-08-05T05:27:57;18.60;1.00
1219;DHT22;599;51.494;6.670;2022-08-05T05:30:23;18.50;1.00
1219;DHT22;599;51.494;6.670;2022-08-05T05:32:49;18.50;1.00
1219;DHT22;599;51.494;6.670;2022-08-05T05:35:14;18.50;1.00
1219;DHT22;599;51.494;6.670;2022-08-05T05:37:48;18.50;1.00
1219;DHT22;599;51.494;6.670;2022-08-05T05:40:18;18.50;1.00
1219;DHT22;599;51.494;6.670;2022-08-05T05:42:49;18.50;1.00
1219;DHT22;599;51.494;6.670;2022-08-05T05:45:16;18.50;1.00
1219;DHT22;599;51.494;6.670;2022-08-05T05:47:42;18.40;1.00
1219;DHT22;599;51.494;6.670;2022-08-05T05:50:10;18.20;1.00
1219;DHT22;599;51.494;6.670;2022-08-05T05:52:38;18.20;1.00
1219;DHT22;599;51.494;6.670;2022-08-05T05:55:06;18.20;1.00
1219;DHT22;599;51.494;6.670;2022-08-05T05:57:34;18.20;1.00
1219;DHT22;599;51.494;6.670;2022-08-05T06:00:01;18.10;1.00
1219;DHT22;599;51.494;6.670;2022-08-05T06:02:27;18.10;1.00
1219;DHT22;599;51.494;6.670;2022-08-05T06:04:53;18.00;1.00
1219;DHT22;599;51.494;6.670;2022-08-05T06:07:18;18.00;1.00
1219;DHT22;599;51.494;6.670;2022-08-05T06:09:44;18.00;1.00
1219;DHT22;599;51.494;6.670;2022-08-05T06:12:10;18.00;1.00
1219;DHT22;599;51.494;6.670;2022-08-05T06:14:36;18.00;1.00
1219;DHT22;599;51.494;6.670;2022-08-05T06:17:02;18.00;1.00
1219;DHT22;599;51.494;6.670;2022-08-05T06:19:28;18.00;1.00
1219;DHT22;599;51.494;6.670;2022-08-05T06:21:54;18.00;1.00
1219;DHT22;599;51.494;6.670;2022-08-05T06:24:20;17.90;1.00
1219;DHT22;599;51.494;6.670;2022-08-05T06:26:45;17.90;1.00
1219;DHT22;599;51.494;6.670;2022-08-05T06:29:11;17.90;1.00
1219;DHT22;599;51.494;6.670;2022-08-05T06:31:37;17.90;1.00
1219;DHT22;599;51.494;6.670;2022-08-05T06:34:04;17.90;1.00
1219;DHT22;599;51.494;6.670;2022-08-05T06:36:30;17.90;1.00
1219;DHT22;599;51.494;6.670;2022-08-05T06:38:56;17.90;1.00
1219;DHT22;599;51.494;6.670;2022-08-05T06:41:22;17.90;1.00
1219;DHT22;599;51.494;6.670;2022-08-05T06:43:48;17.90;1.00
1219;DHT22;599;51.494;6.670;2022-08-05T06:46:14;17.90;1.00
1219;DHT22;599;51.494;6.670;2022-08-05T06:48:40;17.90;1.00
1219;DHT22;599;51.494;6.670;2022-08-05T06:51:06;17.90;1.00
1219;DHT22;599;51.494;6.670;2022-08-05T06:53:32;17.90;1.00
1219;DHT22;599;51.494;6.670;2022-08-05T06:56:00;17.90;1.00
1219;DHT22;599;51.494;6.670;2022-08-05T06:58:28;17.80;1.00
1219;DHT22;599;51.494;6.670;2022-08-05T07:00:56;17.80;1.00
1219;DHT22;599;51.494;6.670;2022-08-05T07:03:23;17.80;1.00
1219;DHT22;599;51.494;6.670;2022-08-05T07:05:48;17.70;1.00
1219;DHT22;599;51.494;6.670;2022-08-05T07:08:14;17.60;1.00
1219;DHT22;599;51.494;6.670;2022-08-05T07:10:40;17.60;1.00
1219;DHT22;599;51.494;6.670;2022-08-05T07:13:06;17.60;1.00
1219;DHT22;599;51.494;6.670;2022-08-05T07:15:50;17.70;1.00
1219;DHT22;599;51.494;6.670;2022-08-05T07:18:34;17.70;1.00
1219;DHT22;599;51.494;6.670;2022-08-05T07:21:00;17.60;1.00
1219;DHT22;599;51.494;6.670;2022-08-05T07:23:27;17.60;1.00
1219;DHT22;599;51.494;6.670;2022-08-05T07:25:53;17.50;1.00
1219;DHT22;599;51.494;6.670;2022-08-05T07:28:19;17.50;1.00
1219;DHT22;599;51.494;6.670;2022-08-05T07:30:45;17.50;1.00
1219;DHT22;599;51.494;6.670;2022-08-05T07:33:11;17.50;1.00
1219;DHT22;599;51.494;6.670;2022-08-05T07:35:37;17.50;1.00
1219;DHT22;599;51.494;6.670;2022-08-05T07:38:04;17.50;1.00
1219;DHT22;599;51.494;6.670;2022-08-05T07:40:30;17.50;1.00
1219;DHT22;599;51.494;6.670;2022-08-05T07:42:56;17.50;1.00
1219;DHT22;599;51.494;6.670;2022-08-05T07:45:22;17.50;1.00
1219;DHT22;599;51.494;6.670;2022-08-05T07:47:48;17.50;1.00
1219;DHT22;599;51.494;6.670;2022-08-05T07:50:14;17.60;1.00
1219;DHT22;599;51.494;6.670;2022-08-05T07:52:41;17.60;1.00
1219;DHT22;599;51.494;6.670;2022-08-05T07:55:09;17.60;1.00
1219;DHT22;599;51.494;6.670;2022-08-05T07:57:35;17.60;1.00
1219;DHT22;599;51.494;6.670;2022-08-05T08:00:03;17.70;1.00
1219;DHT22;599;51.494;6.670;2022-08-05T08:02:37;17.70;1.00
1219;DHT22;599;51.494;6.670;2022-08-05T08:05:03;17.70;1.00
1219;DHT22;599;51.494;6.670;2022-08-05T08:07:29;17.60;1.00
1219;DHT22;599;51.494;6.670;2022-08-05T08:09:55;17.60;1.00
1219;DHT22;599;51.494;6.670;2022-08-05T08:12:22;17.60;1.00
1219;DHT22;599;51.494;6.670;2022-08-05T08:14:48;17.60;1.00
1219;DHT22;599;51.494;6.670;2022-08-05T08:17:14;17.70;1.00
1219;DHT22;599;51.494;6.670;2022-08-05T08:19:41;17.70;1.00
1219;DHT22;599;51.494;6.670;2022-08-05T08:22:08;17.70;1.00
1219;DHT22;599;51.494;6.670;2022-08-05T08:24:35;17.70;1.00
1219;DHT22;599;51.494;6.670;2022-08-05T08:27:02;17.80;1.00
1219;DHT22;599;51.494;6.670;2022-08-05T08:29:28;17.90;1.00
1219;DHT22;599;51.494;6.670;2022-08-05T08:31:54;17.90;1.00
1219;DHT22;599;51.494;6.670;2022-08-05T08:34:22;17.90;1.00
1219;DHT22;599;51.494;6.670;2022-08-05T08:36:49;17.90;1.00
1219;DHT22;599;51.494;6.670;2022-08-05T08:39:15;18.00;1.00
1219;DHT22;599;51.494;6.670;2022-08-05T08:41:47;18.00;1.00
1219;DHT22;599;51.494;6.670;2022-08-05T08:44:16;18.00;1.00
1219;DHT22;599;51.494;6.670;2022-08-05T08:46:46;18.10;1.00
1219;DHT22;599;51.494;6.670;2022-08-05T08:49:14;18.10;1.00
1219;DHT22;599;51.494;6.670;2022-08-05T08:51:42;18.20;1.00
1219;DHT22;599;51.494;6.670;2022-08-05T08:54:12;18.20;1.00
1219;DHT22;599;51.494;6.670;2022-08-05T08:56:38;18.30;1.00
1219;DHT22;599;51.494;6.670;2022-08-05T08:59:05;18.30;1.00
1219;DHT22;599;51.494;6.670;2022-08-05T09:01:31;18.30;1.00
1219;DHT22;599;51.494;6.670;2022-08-05T09:03:57;18.40;1.00
1219;DHT22;599;51.494;6.670;2022-08-05T09:06:26;18.50;1.00
1219;DHT22;599;51.494;6.670;2022-08-05T09:08:53;18.60;1.00
1219;DHT22;599;51.494;6.670;2022-08-05T09:11:19;18.80;1.00
1219;DHT22;599;51.494;6.670;2022-08-05T09:13:46;19.10;1.00
1219;DHT22;599;51.494;6.670;2022-08-05T09:16:12;19.30;1.00
1219;DHT22;599;51.494;6.670;2022-08-05T09:18:38;19.50;1.00
1219;DHT22;599;51.494;6.670;2022-08-05T09:21:05;19.60;1.00
1219;DHT22;599;51.494;6.670;2022-08-05T09:23:31;19.70;1.00
1219;DHT22;599;51.494;6.670;2022-08-05T09:26:10;19.70;1.00
1219;DHT22;599;51.494;6.670;2022-08-05T09:28:39;19.80;1.00
1219;DHT22;599;51.494;6.670;2022-08-05T09:31:10;19.80;1.00
1219;DHT22;599;51.494;6.670;2022-08-05T09:33:54;19.80;1.00
1219;DHT22;599;51.494;6.670;2022-08-05T09:36:38;19.80;1.00
1219;DHT22;599;51.494;6.670;2022-08-05T09:39:10;20.00;1.00
1219;DHT22;599;51.494;6.670;2022-08-05T09:41:59;20.00;1.00
1219;DHT22;599;51.494;6.670;2022-08-05T09:47:17;20.40;1.00
1219;DHT22;599;51.494;6.670;2022-08-05T09:49:52;20.50;1.00
1219;DHT22;599;51.494;6.670;2022-08-05T09:55:00;20.80;1.00
1219;DHT22;599;51.494;6.670;2022-08-05T09:57:38;20.90;1.00
1219;DHT22;599;51.494;6.670;2022-08-05T10:00:17;21.20;1.00
1219;DHT22;599;51.494;6.670;2022-08-05T10:02:51;21.30;1.00
1219;DHT22;599;51.494;6.670;2022-08-05T10:05:28;21.40;1.00
1219;DHT22;599;51.494;6.670;2022-08-05T10:07:59;21.50;1.00
1219;DHT22;599;51.494;6.670;2022-08-05T10:10:31;21.50;1.00
1219;DHT22;599;51.494;6.670;2022-08-05T10:13:02;21.70;1.00
1219;DHT22;599;51.494;6.670;2022-08-05T10:15:42;21.80;99.90
1219;DHT22;599;51.494;6.670;2022-08-05T10:20:42;22.60;99.90
1219;DHT22;599;51.494;6.670;2022-08-05T10:23:14;23.10;99.90
1219;DHT22;599;51.494;6.670;2022-08-05T10:25:47;23.90;99.90
1219;DHT22;599;51.494;6.670;2022-08-05T10:28:14;24.60;99.90
1219;DHT22;599;51.494;6.670;2022-08-05T10:30:41;24.70;99.90
1219;DHT22;599;51.494;6.670;2022-08-05T10:33:07;25.00;99.90
1219;DHT22;599;51.494;6.670;2022-08-05T10:35:34;24.80;99.90
1219;DHT22;599;51.494;6.670;2022-08-05T10:38:01;24.30;99.90
1219;DHT22;599;51.494;6.670;2022-08-05T10:45:59;24.20;99.90
1219;DHT22;599;51.494;6.670;2022-08-05T10:48:37;25.20;99.90
1219;DHT22;599;51.494;6.670;2022-08-05T10:56:23;24.80;99.90
1219;DHT22;599;51.494;6.670;2022-08-05T11:01:48;24.10;99.90
1219;DHT22;599;51.494;6.670;2022-08-05T11:04:21;23.90;99.90
1219;DHT22;599;51.494;6.670;2022-08-05T11:09:24;23.00;99.90
1219;DHT22;599;51.494;6.670;2022-08-05T11:11:54;23.00;99.90
1219;DHT22;599;51.494;6.670;2022-08-05T11:14:32;23.30;99.90
1219;DHT22;599;51.494;6.670;2022-08-05T11:17:32;24.40;99.90
1219;DHT22;599;51.494;6.670;2022-08-05T11:20:00;25.70;99.90
1219;DHT22;599;51.494;6.670;2022-08-05T11:22:46;25.80;99.90
1219;DHT22;599;51.494;6.670;2022-08-05T11:25:33;26.90;99.90
1219;DHT22;599;51.494;6.670;2022-08-05T11:33:31;30.80;99.90
1219;DHT22;599;51.494;6.670;2022-08-05T11:36:10;31.30;99.90
1219;DHT22;599;51.494;6.670;2022-08-05T11:44:10;29.10;99.90
1219;DHT22;599;51.494;6.670;2022-08-05T11:49:15;29.70;99.90
1219;DHT22;599;51.494;6.670;2022-08-05T11:51:44;31.80;99.90
1219;DHT22;599;51.494;6.670;2022-08-05T11:54:12;33.80;99.90
1219;DHT22;599;51.494;6.670;2022-08-05T11:56:53;35.80;63.30
1219;DHT22;599;51.494;6.670;2022-08-05T11:59:26;36.40;48.20
1219;DHT22;599;51.494;6.670;2022-08-05T12:04:18;36.20;50.80
1219;DHT22;599;51.494;6.670;2022-08-05T12:06:45;35.50;60.40
1219;DHT22;599;51.494;6.670;2022-08-05T12:09:11;35.30;52.90
1219;DHT22;599;51.494;6.670;2022-08-05T12:11:42;33.80;54.30
1219;DHT22;599;51.494;6.670;2022-08-05T12:14:09;31.50;74.00
1219;DHT22;599;51.494;6.670;2022-08-05T12:16:41;30.30;93.30
1219;DHT22;599;51.494;6.670;2022-08-05T12:19:09;28.90;99.90
1219;DHT22;599;51.494;6.670;2022-08-05T12:21:43;28.00;99.90
1219;DHT22;599;51.494;6.670;2022-08-05T12:24:19;27.10;99.90
1219;DHT22;599;51.494;6.670;2022-08-05T12:26:47;26.00;99.90
1219;DHT22;599;51.494;6.670;2022-08-05T12:29:25;25.30;99.90
1219;DHT22;599;51.494;6.670;2022-08-05T12:31:57;24.80;99.90
1219;DHT22;599;51.494;6.670;2022-08-05T12:34:33;24.50;99.90
1219;DHT22;599;51.494;6.670;2022-08-05T12:37:05;24.20;99.90
1219;DHT22;599;51.494;6.670;2022-08-05T12:39:38;24.00;99.90
1219;DHT22;599;51.494;6.670;2022-08-05T12:42:12;23.80;99.90
1219;DHT22;599;51.494;6.670;2022-08-05T12:44:42;23.60;99.90
1219;DHT22;599;51.494;6.670;2022-08-05T12:47:09;23.40;99.90
1219;DHT22;599;51.494;6.670;2022-08-05T12:49:46;23.50;99.90
1219;DHT22;599;51.494;6.670;2022-08-05T12:52:17;23.40;99.90
1219;DHT22;599;51.494;6.670;2022-08-05T12:54:45;23.30;99.90
1219;DHT22;599;51.494;6.670;2022-08-05T12:57:13;23.20;99.90
1219;DHT22;599;51.494;6.670;2022-08-05T12:59:50;23.00;99.90
1219;DHT22;599;51.494;6.670;2022-08-05T13:02:24;23.10;99.90
1219;DHT22;599;51.494;6.670;2022-08-05T13:04:52;23.10;99.90
1219;DHT22;599;51.494;6.670;2022-08-05T13:07:21;23.10;99.90
1219;DHT22;599;51.494;6.670;2022-08-05T13:09:56;23.20;99.90
1219;DHT22;599;51.494;6.670;2022-08-05T13:12:25;23.30;99.90
1219;DHT22;599;51.494;6.670;2022-08-05T13:14:55;23.30;99.90
1219;DHT22;599;51.494;6.670;2022-08-05T13:17:30;23.20;99.90
1219;DHT22;599;51.494;6.670;2022-08-05T13:22:34;22.90;99.90
1219;DHT22;599;51.494;6.670;2022-08-05T13:25:07;22.70;99.90
1219;DHT22;599;51.494;6.670;2022-08-05T13:27:46;22.60;99.90
1219;DHT22;599;51.494;6.670;2022-08-05T13:30:15;22.50;99.90
1219;DHT22;599;51.494;6.670;2022-08-05T13:32:42;22.40;99.90
1219;DHT22;599;51.494;6.670;2022-08-05T13:35:19;22.30;99.90
1219;DHT22;599;51.494;6.670;2022-08-05T13:37:46;22.20;99.90
1219;DHT22;599;51.494;6.670;2022-08-05T13:40:13;22.20;99.90
1219;DHT22;599;51.494;6.670;2022-08-05T13:42:39;22.30;99.90
1219;DHT22;599;51.494;6.670;2022-08-05T13:45:06;22.40;99.90
1219;DHT22;599;51.494;6.670;2022-08-05T13:47:33;22.50;99.90
1219;DHT22;599;51.494;6.670;2022-08-05T13:49:59;22.50;99.90
1219;DHT22;599;51.494;6.670;2022-08-05T13:52:26;22.60;99.90
1219;DHT22;599;51.494;6.670;2022-08-05T13:54:54;22.90;99.90
1219;DHT22;599;51.494;6.670;2022-08-05T13:59:58;23.40;99.90
1219;DHT22;599;51.494;6.670;2022-08-05T14:02:24;23.80;99.90
1219;DHT22;599;51.494;6.670;2022-08-05T14:04:49;24.10;99.90
1219;DHT22;599;51.494;6.670;2022-08-05T14:07:35;24.00;99.90
1219;DHT22;599;51.494;6.670;2022-08-05T14:10:11;23.90;99.90
1219;DHT22;599;51.494;6.670;2022-08-05T14:12:39;23.60;99.90
1219;DHT22;599;51.494;6.670;2022-08-05T14:15:06;23.50;99.90
1219;DHT22;599;51.494;6.670;2022-08-05T14:17:32;23.30;99.90
1219;DHT22;599;51.494;6.670;2022-08-05T14:19:58;23.20;99.90
1219;DHT22;599;51.494;6.670;2022-08-05T14:22:24;23.20;99.90
1219;DHT22;599;51.494;6.670;2022-08-05T14:24:50;23.50;99.90
1219;DHT22;599;51.494;6.670;2022-08-05T14:27:17;23.90;99.90
1219;DHT22;599;51.494;6.670;2022-08-05T14:29:43;24.10;99.90
1219;DHT22;599;51.494;6.670;2022-08-05T14:32:09;24.30;99.90
1219;DHT22;599;51.494;6.670;2022-08-05T14:34:35;24.10;99.90
1219;DHT22;599;51.494;6.670;2022-08-05T14:37:01;24.10;99.90
1219;DHT22;599;51.494;6.670;2022-08-05T14:39:28;24.10;99.90
1219;DHT22;599;51.494;6.670;2022-08-05T14:41:54;24.20;99.90
1219;DHT22;599;51.494;6.670;2022-08-05T14:44:20;24.20;99.90
1219;DHT22;599;51.494;6.670;2022-08-05T14:46:46;24.50;99.90
1219;DHT22;599;51.494;6.670;2022-08-05T14:49:12;24.60;99.90
1219;DHT22;599;51.494;6.670;2022-08-05T14:51:38;24.50;99.90
1219;DHT22;599;51.494;6.670;2022-08-05T14:54:05;24.20;99.90
1219;DHT22;599;51.494;6.670;2022-08-05T14:56:32;24.00;99.90
1219;DHT22;599;51.494;6.670;2022-08-05T14:58:59;23.90;99.90
1219;DHT22;599;51.494;6.670;2022-08-05T15:01:26;24.00;99.90
1219;DHT22;599;51.494;6.670;2022-08-05T15:03:52;24.10;99.90
1219;DHT22;599;51.494;6.670;2022-08-05T15:06:18;24.20;99.90
1219;DHT22;599;51.494;6.670;2022-08-05T15:08:45;24.30;99.90
1219;DHT22;599;51.494;6.670;2022-08-05T15:11:11;24.40;99.90
1219;DHT22;599;51.494;6.670;2022-08-05T15:13:37;24.30;97.90
1219;DHT22;599;51.494;6.670;2022-08-05T15:16:03;24.30;99.90
1219;DHT22;599;51.494;6.670;2022-08-05T15:18:29;24.10;99.90
1219;DHT22;599;51.494;6.670;2022-08-05T15:20:55;23.80;99.90
1219;DHT22;599;51.494;6.670;2022-08-05T15:23:21;23.60;99.90
1219;DHT22;599;51.494;6.670;2022-08-05T15:25:47;23.40;99.90
1219;DHT22;599;51.494;6.670;2022-08-05T15:28:14;23.30;99.90
1219;DHT22;599;51.494;6.670;2022-08-05T15:30:41;23.20;99.90
1219;DHT22;599;51.494;6.670;2022-08-05T15:33:08;23.30;99.90
1219;DHT22;599;51.494;6.670;2022-08-05T15:35:34;23.20;99.90
1219;DHT22;599;51.494;6.670;2022-08-05T15:38:00;23.20;99.90
1219;DHT22;599;51.494;6.670;2022-08-05T15:40:26;23.20;99.90
1219;DHT22;599;51.494;6.670;2022-08-05T15:42:52;23.30;99.90
1219;DHT22;599;51.494;6.670;2022-08-05T15:45:18;23.40;99.90
1219;DHT22;599;51.494;6.670;2022-08-05T15:47:44;23.50;99.90
1219;DHT22;599;51.494;6.670;2022-08-05T15:50:11;23.60;99.60
1219;DHT22;599;51.494;6.670;2022-08-05T15:52:39;23.70;98.30
1219;DHT22;599;51.494;6.670;2022-08-05T15:55:07;23.90;99.90
1219;DHT22;599;51.494;6.670;2022-08-05T15:57:35;24.00;99.90
1219;DHT22;599;51.494;6.670;2022-08-05T16:00:04;23.90;99.90
1219;DHT22;599;51.494;6.670;2022-08-05T16:02:31;24.00;99.90
1219;DHT22;599;51.494;6.670;2022-08-05T16:04:57;24.10;99.90
1219;DHT22;599;51.494;6.670;2022-08-05T16:07:23;24.20;99.90
1219;DHT22;599;51.494;6.670;2022-08-05T16:09:49;24.10;99.90
1219;DHT22;599;51.494;6.670;2022-08-05T16:12:16;24.00;99.90
1219;DHT22;599;51.494;6.670;2022-08-05T16:14:42;23.60;99.90
1219;DHT22;599;51.494;6.670;2022-08-05T16:17:09;23.40;99.90
1219;DHT22;599;51.494;6.670;2022-08-05T16:19:35;23.20;99.90
1219;DHT22;599;51.494;6.670;2022-08-05T16:22:02;23.20;99.90
1219;DHT22;599;51.494;6.670;2022-08-05T16:24:30;23.00;99.90
1219;DHT22;599;51.494;6.670;2022-08-05T16:26:58;22.90;99.90
1219;DHT22;599;51.494;6.670;2022-08-05T16:29:26;22.90;99.90
1219;DHT22;599;51.494;6.670;2022-08-05T16:31:54;23.00;99.90
1219;DHT22;599;51.494;6.670;2022-08-05T16:34:22;22.90;99.90
1219;DHT22;599;51.494;6.670;2022-08-05T16:36:48;22.70;99.90
1219;DHT22;599;51.494;6.670;2022-08-05T16:39:15;22.70;99.90
1219;DHT22;599;51.494;6.670;2022-08-05T16:41:41;22.60;99.90
1219;DHT22;599;51.494;6.670;2022-08-05T16:44:09;22.80;99.90
1219;DHT22;599;51.494;6.670;2022-08-05T16:46:37;22.80;99.90
1219;DHT22;599;51.494;6.670;2022-08-05T16:49:04;22.80;99.90
1219;DHT22;599;51.494;6.670;2022-08-05T16:51:31;22.80;99.90
1219;DHT22;599;51.494;6.670;2022-08-05T16:53:57;22.80;99.90
1219;DHT22;599;51.494;6.670;2022-08-05T16:56:23;22.70;99.90
1219;DHT22;599;51.494;6.670;2022-08-05T16:58:50;22.60;99.90
1219;DHT22;599;51.494;6.670;2022-08-05T17:01:16;22.60;99.90
1219;DHT22;599;51.494;6.670;2022-08-05T17:03:42;22.60;99.90
1219;DHT22;599;51.494;6.670;2022-08-05T17:06:08;22.60;99.90
1219;DHT22;599;51.494;6.670;2022-08-05T17:08:34;22.40;99.90
1219;DHT22;599;51.494;6.670;2022-08-05T17:11:01;22.40;99.90
1219;DHT22;599;51.494;6.670;2022-08-05T17:13:27;22.30;99.90
1219;DHT22;599;51.494;6.670;2022-08-05T17:15:53;22.30;99.90
1219;DHT22;599;51.494;6.670;2022-08-05T17:18:19;22.20;99.90
1219;DHT22;599;51.494;6.670;2022-08-05T17:20:45;22.20;99.90
1219;DHT22;599;51.494;6.670;2022-08-05T17:23:11;22.10;99.90
1219;DHT22;599;51.494;6.670;2022-08-05T17:25:37;22.20;99.90
1219;DHT22;599;51.494;6.670;2022-08-05T17:28:03;22.00;99.90
1219;DHT22;599;51.494;6.670;2022-08-05T17:30:29;22.00;99.90
1219;DHT22;599;51.494;6.670;2022-08-05T17:32:55;21.90;99.90